createdAt,value
2023-01-17T00:01:42.845Z,989.08
2023-01-17T00:06:41.973Z,989.10
2023-01-17T00:11:43.084Z,989.11
2023-01-17T00:16:44.205Z,989.08
2023-01-17T00:21:45.361Z,988.96
2023-01-17T00:26:47.457Z,988.95
2023-01-17T00:31:46.661Z,988.91
2023-01-17T00:36:48.832Z,988.93
2023-01-17T00:41:48.252Z,989.02
2023-01-17T00:46:49.433Z,989.01
2023-01-17T00:51:51.585Z,988.97
2023-01-17T00:56:50.766Z,988.92
2023-01-17T01:01:52.116Z,989.00
2023-01-17T01:06:53.386Z,989.13
2023-01-17T01:11:54.581Z,989.19
2023-01-17T01:16:56.073Z,989.17
2023-01-17T01:21:58.205Z,989.21
2023-01-17T01:26:55.509Z,989.20
2023-01-17T01:31:56.919Z,989.28
2023-01-17T01:36:58.051Z,989.24
2023-01-17T01:41:59.185Z,989.27
2023-01-17T01:47:00.370Z,989.27
2023-01-17T01:52:02.599Z,989.21
2023-01-17T01:57:01.750Z,989.17
2023-01-17T02:02:03.066Z,989.12
2023-01-17T02:07:05.197Z,989.17
2023-01-17T02:12:04.396Z,989.13
2023-01-17T02:17:05.564Z,989.12
2023-01-17T02:22:06.704Z,989.12
2023-01-17T02:27:07.977Z,989.09
2023-01-17T02:32:10.080Z,989.02
2023-01-17T02:37:11.235Z,988.93
2023-01-17T02:42:11.375Z,988.94
2023-01-17T02:47:10.531Z,988.80
2023-01-17T02:52:11.651Z,988.80
2023-01-17T02:57:12.773Z,988.86
2023-01-17T03:02:13.983Z,988.80
2023-01-17T03:07:15.222Z,988.71
2023-01-17T03:12:16.545Z,988.71
2023-01-17T03:17:17.648Z,988.69
2023-01-17T03:22:18.841Z,988.74
2023-01-17T03:27:20.014Z,988.67
2023-01-17T03:32:21.188Z,988.74
2023-01-17T03:37:22.342Z,988.84
2023-01-17T03:42:23.441Z,988.78
2023-01-17T03:47:25.622Z,988.82
2023-01-17T03:52:24.748Z,988.92
2023-01-17T03:57:25.871Z,988.81
2023-01-17T04:02:26.067Z,988.74
2023-01-17T04:07:27.208Z,988.74
2023-01-17T04:12:27.364Z,988.61
2023-01-17T04:17:28.668Z,988.56
2023-01-17T04:22:30.033Z,988.58
2023-01-17T04:27:31.193Z,988.54
2023-01-17T04:32:32.388Z,988.35
2023-01-17T04:37:33.587Z,988.32
2023-01-17T04:42:34.740Z,988.31
2023-01-17T04:47:36.897Z,988.32
2023-01-17T04:52:36.069Z,988.49
2023-01-17T04:57:37.373Z,988.57
2023-01-17T05:02:38.874Z,988.57
2023-01-17T05:07:38.552Z,988.51
2023-01-17T05:12:37.686Z,988.43
2023-01-17T05:17:38.862Z,988.31
2023-01-17T05:22:40.203Z,988.15
2023-01-17T05:27:41.366Z,988.21
2023-01-17T05:32:42.699Z,988.29
2023-01-17T05:37:43.931Z,988.21
2023-01-17T05:42:45.151Z,988.07
2023-01-17T05:47:46.399Z,988.02
2023-01-17T05:52:47.639Z,987.93
2023-01-17T05:57:48.865Z,987.82
2023-01-17T06:02:50.268Z,987.66
2023-01-17T06:07:51.434Z,987.76
2023-01-17T06:12:52.572Z,987.78
2023-01-17T06:17:53.751Z,987.80
2023-01-17T06:22:55.901Z,987.79
2023-01-17T06:27:55.159Z,987.70
2023-01-17T06:32:56.296Z,987.80
2023-01-17T06:37:57.489Z,987.94
2023-01-17T06:42:58.604Z,987.93
2023-01-17T06:47:59.787Z,987.91
2023-01-17T06:53:00.977Z,987.76
2023-01-17T06:58:03.350Z,987.61
2023-01-17T07:03:02.508Z,987.62
2023-01-17T07:08:03.629Z,987.42
2023-01-17T07:13:04.800Z,987.33
2023-01-17T07:18:05.943Z,987.31
2023-01-17T07:23:08.128Z,987.27
2023-01-17T07:28:07.316Z,987.18
2023-01-17T07:33:08.502Z,987.22
2023-01-17T07:38:10.722Z,987.20
2023-01-17T07:43:10.038Z,987.22
2023-01-17T07:48:11.253Z,987.25
2023-01-17T07:53:12.451Z,987.28
2023-01-17T07:58:13.625Z,987.28
2023-01-17T08:03:13.803Z,987.23
2023-01-17T08:08:16.491Z,987.09
2023-01-17T08:13:14.925Z,986.96
2023-01-17T08:18:17.119Z,986.89
2023-01-17T08:23:16.271Z,986.77
2023-01-17T08:28:18.440Z,986.57
2023-01-17T08:33:17.622Z,986.61
2023-01-17T08:38:20.807Z,986.47
2023-01-17T08:43:19.979Z,986.36
2023-01-17T08:48:21.113Z,986.23
2023-01-17T08:53:22.423Z,986.12
2023-01-17T08:58:23.531Z,985.96
2023-01-17T09:03:24.669Z,985.86
2023-01-17T09:08:25.789Z,985.73
2023-01-17T09:13:28.065Z,985.44
2023-01-17T09:18:27.240Z,985.48
2023-01-17T09:23:28.350Z,985.54
2023-01-17T09:28:33.401Z,985.40
2023-01-17T09:33:34.472Z,985.40
2023-01-17T09:38:31.570Z,985.57
2023-01-17T09:43:32.771Z,985.54
2023-01-17T09:48:34.884Z,985.56
2023-01-17T09:53:34.068Z,985.52
2023-01-17T09:58:35.238Z,985.51
2023-01-17T10:03:36.594Z,985.35
2023-01-17T10:08:38.775Z,985.26
2023-01-17T10:13:37.919Z,985.25
2023-01-17T10:18:39.101Z,985.17
2023-01-17T10:23:40.245Z,985.22
2023-01-17T10:28:41.378Z,985.11
2023-01-17T10:33:43.548Z,985.06
2023-01-17T10:38:42.865Z,984.89
2023-01-17T10:43:44.953Z,984.92
2023-01-17T10:48:44.124Z,984.74
2023-01-17T10:53:45.267Z,984.66
2023-01-17T10:58:46.477Z,984.50
2023-01-17T11:03:46.631Z,984.42
2023-01-17T11:08:47.768Z,984.39
2023-01-17T11:13:49.914Z,984.26
2023-01-17T11:18:49.078Z,984.15
2023-01-17T11:23:50.342Z,984.16
2023-01-17T11:28:52.561Z,984.15
2023-01-17T11:33:51.730Z,984.09
2023-01-17T11:38:52.879Z,983.89
2023-01-17T11:43:55.177Z,983.78
2023-01-17T11:48:56.191Z,983.70
2023-01-17T11:53:55.678Z,983.52
2023-01-17T11:58:56.873Z,983.40
2023-01-17T12:03:59.002Z,983.25
2023-01-17T12:08:58.109Z,983.00
2023-01-17T12:13:59.219Z,983.07
2023-01-17T12:19:00.381Z,983.08
2023-01-17T12:24:01.611Z,982.81
2023-01-17T12:29:03.766Z,982.85
2023-01-17T12:34:02.938Z,982.72
2023-01-17T12:39:04.166Z,982.48
2023-01-17T12:44:05.437Z,982.18
2023-01-17T12:49:06.561Z,982.06
2023-01-17T12:54:07.737Z,981.98
2023-01-17T12:59:08.976Z,981.95
2023-01-17T13:04:11.160Z,981.84
2023-01-17T13:09:10.316Z,981.74
2023-01-17T13:14:12.451Z,981.70
2023-01-17T13:19:11.574Z,981.54
2023-01-17T13:24:11.705Z,981.52
2023-01-17T13:29:12.891Z,981.35
2023-01-17T13:34:16.041Z,981.42
2023-01-17T13:39:16.179Z,981.38
2023-01-17T13:44:15.269Z,981.32
2023-01-17T13:49:16.421Z,981.44
2023-01-17T13:54:18.512Z,981.30
2023-01-17T13:59:18.719Z,981.38
2023-01-17T14:04:16.900Z,981.40
2023-01-17T14:09:18.055Z,981.52
2023-01-17T14:14:19.168Z,981.59
2023-01-17T14:19:21.303Z,981.53
2023-01-17T14:24:20.541Z,981.52
2023-01-17T14:29:21.685Z,981.51
2023-01-17T14:34:22.857Z,981.40
2023-01-17T14:39:23.981Z,981.44
2023-01-17T14:44:27.106Z,981.46
2023-01-17T14:49:26.250Z,981.42
2023-01-17T14:54:28.398Z,981.61
2023-01-17T14:59:27.553Z,981.68
2023-01-17T15:04:28.696Z,981.77
2023-01-17T15:09:29.892Z,981.91
2023-01-17T15:14:32.069Z,982.00
2023-01-17T15:19:31.220Z,981.88
2023-01-17T15:24:32.354Z,981.87
2023-01-17T15:29:33.511Z,981.72
2023-01-17T15:34:33.744Z,981.73
2023-01-17T15:39:34.896Z,981.75
2023-01-17T15:44:48.448Z,981.97
2023-01-17T15:49:36.029Z,982.09
2023-01-17T15:54:38.199Z,982.22
2023-01-17T15:59:37.362Z,982.28
2023-01-17T16:04:38.510Z,982.27
2023-01-17T16:09:40.664Z,982.32
2023-01-17T16:14:59.275Z,982.19
2023-01-17T16:19:40.979Z,982.27
2023-01-17T16:24:40.197Z,982.26
2023-01-17T16:29:42.478Z,982.30
2023-01-17T16:34:41.636Z,982.43
2023-01-17T16:39:43.889Z,982.50
2023-01-17T16:44:43.382Z,982.56
2023-01-17T16:49:43.517Z,982.67
2023-01-17T16:54:42.712Z,982.81
2023-01-17T16:59:50.682Z,982.96
2023-01-17T17:04:43.832Z,983.11
2023-01-17T17:09:44.963Z,983.21
2023-01-17T17:14:47.099Z,983.42
2023-01-17T17:19:46.247Z,983.68
2023-01-17T17:24:47.398Z,983.73
2023-01-17T17:29:48.665Z,983.76
2023-01-17T17:34:50.042Z,983.78
2023-01-17T17:39:51.437Z,983.99
2023-01-17T17:44:52.717Z,984.10
2023-01-17T17:49:54.076Z,984.08
2023-01-17T17:54:55.336Z,984.15
2023-01-17T17:59:56.839Z,984.12
2023-01-17T18:04:56.315Z,984.16
2023-01-17T18:09:57.744Z,984.14
2023-01-17T18:15:00.279Z,984.24
2023-01-17T18:19:59.521Z,984.19
2023-01-17T18:25:00.726Z,984.29
2023-01-17T18:30:02.058Z,984.32
2023-01-17T18:35:03.353Z,984.32
2023-01-17T18:40:04.788Z,984.29
2023-01-17T18:45:04.036Z,984.41
2023-01-17T18:50:05.480Z,984.31
2023-01-17T18:55:04.902Z,984.35
2023-01-17T19:00:06.353Z,984.29
2023-01-17T19:05:05.887Z,984.21
2023-01-17T19:10:05.853Z,984.14
2023-01-17T19:15:05.385Z,984.28
2023-01-17T19:20:04.792Z,984.22
2023-01-17T19:25:06.214Z,984.37
2023-01-17T19:30:07.683Z,984.46
2023-01-17T19:35:07.216Z,984.57
2023-01-17T19:40:07.444Z,984.58
2023-01-17T19:45:07.574Z,984.62
2023-01-17T19:50:08.082Z,984.53
2023-01-17T19:55:07.316Z,984.60
2023-01-17T20:00:08.744Z,984.62
2023-01-17T20:05:08.416Z,984.55
2023-01-17T20:10:07.973Z,984.64
2023-01-17T20:15:08.363Z,984.71
2023-01-17T20:20:07.692Z,984.72
2023-01-17T20:25:09.186Z,984.74
2023-01-17T20:30:19.786Z,984.91
2023-01-17T20:35:08.883Z,984.81
2023-01-17T20:40:08.133Z,984.99
2023-01-17T20:45:09.321Z,984.99
2023-01-17T20:50:10.574Z,984.90
2023-01-17T20:55:11.718Z,984.87
2023-01-17T21:00:13.218Z,984.90
2023-01-17T21:05:12.491Z,984.92
2023-01-17T21:10:13.761Z,985.03
2023-01-17T21:15:14.979Z,985.08
2023-01-17T21:20:16.103Z,985.12
2023-01-17T21:25:17.312Z,984.98
2023-01-17T21:30:18.562Z,984.98
2023-01-17T21:35:19.743Z,985.02
2023-01-17T21:40:20.958Z,985.00
2023-01-17T21:45:23.099Z,984.94
2023-01-17T21:50:32.712Z,984.98
2023-01-17T21:55:22.336Z,984.99
2023-01-17T22:00:23.531Z,985.06
2023-01-17T22:05:24.766Z,985.01
2023-01-17T22:10:26.027Z,985.03
2023-01-17T22:15:28.223Z,985.16
2023-01-17T22:20:27.415Z,985.23
2023-01-17T22:25:28.636Z,985.15
2023-01-17T22:30:29.807Z,985.16
2023-01-17T22:35:31.027Z,985.14
2023-01-17T22:40:31.177Z,985.13
2023-01-17T22:45:32.285Z,985.03
2023-01-17T22:50:33.753Z,985.00
2023-01-17T22:55:32.910Z,984.94
2023-01-17T23:00:34.068Z,984.91
2023-01-17T23:05:35.225Z,984.91
2023-01-17T23:10:36.363Z,984.98
2023-01-17T23:15:37.555Z,985.00
2023-01-17T23:20:38.701Z,984.98
2023-01-17T23:25:39.869Z,985.02
2023-01-17T23:30:40.081Z,984.99
2023-01-17T23:35:42.101Z,985.13
2023-01-17T23:40:42.495Z,985.18
2023-01-17T23:45:41.680Z,985.15
2023-01-17T23:50:42.880Z,985.16
2023-01-17T23:55:44.043Z,985.18
